sensor_id;sensor_type;location;lat;lon;timestamp;temperature;humidity
1417;DHT22;703;51.162;13.574;2022-11-20T00:00:29;-6.50;99.90
1417;DHT22;703;51.162;13.574;2022-11-20T00:02:54;-6.50;99.90
1417;DHT22;703;51.162;13.574;2022-11-20T00:05:20;-6.50;99.90
1417;DHT22;703;51.162;13.574;2022-11-20T00:07:46;-6.60;99.90
1417;DHT22;703;51.162;13.574;2022-11-20T00:10:12;-6.70;99.90
1417;DHT22;703;51.162;13.574;2022-11-20T00:12:38;-6.60;99.90
1417;DHT22;703;51.162;13.574;2022-11-20T00:15:04;-6.70;99.90
1417;DHT22;703;51.162;13.574;2022-11-20T00:17:30;-5.10;99.90
1417;DHT22;703;51.162;13.574;2022-11-20T00:19:55;-6.70;99.90
1417;DHT22;703;51.162;13.574;2022-11-20T00:22:21;-6.70;99.90
1417;DHT22;703;51.162;13.574;2022-11-20T00:24:47;-6.70;99.90
1417;DHT22;703;51.162;13.574;2022-11-20T00:27:12;-6.70;99.90
1417;DHT22;703;51.162;13.574;2022-11-20T00:29:41;-6.60;99.90
1417;DHT22;703;51.162;13.574;2022-11-20T00:32:07;-6.50;99.90
1417;DHT22;703;51.162;13.574;2022-11-20T00:34:32;-6.50;99.90
1417;DHT22;703;51.162;13.574;2022-11-20T00:36:58;-6.70;99.90
1417;DHT22;703;51.162;13.574;2022-11-20T00:39:24;-6.60;99.90
1417;DHT22;703;51.162;13.574;2022-11-20T00:41:49;-6.70;99.90
1417;DHT22;703;51.162;13.574;2022-11-20T00:44:15;-6.70;99.90
1417;DHT22;703;51.162;13.574;2022-11-20T00:46:41;-6.70;99.90
1417;DHT22;703;51.162;13.574;2022-11-20T00:49:06;-6.70;99.90
1417;DHT22;703;51.162;13.574;2022-11-20T00:51:32;-6.70;99.90
1417;DHT22;703;51.162;13.574;2022-11-20T00:53:58;-6.80;99.90
1417;DHT22;703;51.162;13.574;2022-11-20T00:56:25;-6.90;99.90
1417;DHT22;703;51.162;13.574;2022-11-20T00:58:51;-6.90;99.90
1417;DHT22;703;51.162;13.574;2022-11-20T01:01:19;-6.80;99.90
1417;DHT22;703;51.162;13.574;2022-11-20T01:03:48;-6.80;99.90
1417;DHT22;703;51.162;13.574;2022-11-20T01:06:22;-6.80;99.90
1417;DHT22;703;51.162;13.574;2022-11-20T01:08:50;-6.80;99.90
1417;DHT22;703;51.162;13.574;2022-11-20T01:11:25;-6.90;99.90
1417;DHT22;703;51.162;13.574;2022-11-20T01:13:53;-6.70;99.90
1417;DHT22;703;51.162;13.574;2022-11-20T01:18:47;-6.70;99.90
1417;DHT22;703;51.162;13.574;2022-11-20T01:21:19;-6.80;99.90
1417;DHT22;703;51.162;13.574;2022-11-20T01:23:45;-6.80;99.90
1417;DHT22;703;51.162;13.574;2022-11-20T01:26:19;-6.90;99.90
1417;DHT22;703;51.162;13.574;2022-11-20T01:28:46;-6.80;99.90
1417;DHT22;703;51.162;13.574;2022-11-20T01:31:25;-6.90;99.90
1417;DHT22;703;51.162;13.574;2022-11-20T01:33:53;-6.90;99.90
1417;DHT22;703;51.162;13.574;2022-11-20T01:36:20;-6.80;99.90
1417;DHT22;703;51.162;13.574;2022-11-20T01:38:46;-6.80;99.90
1417;DHT22;703;51.162;13.574;2022-11-20T01:41:14;-6.80;99.90
1417;DHT22;703;51.162;13.574;2022-11-20T01:44:01;-6.80;99.90
1417;DHT22;703;51.162;13.574;2022-11-20T01:46:27;-6.90;99.90
1417;DHT22;703;51.162;13.574;2022-11-20T01:48:57;-7.00;99.90
1417;DHT22;703;51.162;13.574;2022-11-20T01:53:52;-7.10;99.90
1417;DHT22;703;51.162;13.574;2022-11-20T01:56:18;-7.10;99.90
1417;DHT22;703;51.162;13.574;2022-11-20T01:58:48;-7.10;99.90
1417;DHT22;703;51.162;13.574;2022-11-20T02:01:15;-7.20;99.90
1417;DHT22;703;51.162;13.574;2022-11-20T02:03:41;-7.20;99.90
1417;DHT22;703;51.162;13.574;2022-11-20T02:08:38;-7.10;99.90
1417;DHT22;703;51.162;13.574;2022-11-20T02:11:04;-7.10;99.90
1417;DHT22;703;51.162;13.574;2022-11-20T02:13:30;-7.20;99.90
1417;DHT22;703;51.162;13.574;2022-11-20T02:16:23;-7.20;99.90
1417;DHT22;703;51.162;13.574;2022-11-20T02:18:50;-6.90;99.90
1417;DHT22;703;51.162;13.574;2022-11-20T02:21:30;-6.90;99.90
1417;DHT22;703;51.162;13.574;2022-11-20T02:24:15;-7.00;99.90
1417;DHT22;703;51.162;13.574;2022-11-20T02:32:02;-7.10;99.90
1417;DHT22;703;51.162;13.574;2022-11-20T02:34:28;-7.10;99.90
1417;DHT22;703;51.162;13.574;2022-11-20T02:36:54;-7.10;99.90
1417;DHT22;703;51.162;13.574;2022-11-20T02:39:23;-7.10;99.90
1417;DHT22;703;51.162;13.574;2022-11-20T02:41:52;-7.20;99.90
1417;DHT22;703;51.162;13.574;2022-11-20T02:44:19;-7.20;99.90
1417;DHT22;703;51.162;13.574;2022-11-20T02:46:45;-7.20;99.90
1417;DHT22;703;51.162;13.574;2022-11-20T02:49:11;-7.20;99.90
1417;DHT22;703;51.162;13.574;2022-11-20T02:51:36;-7.20;99.90
1417;DHT22;703;51.162;13.574;2022-11-20T02:54:02;-7.20;99.90
1417;DHT22;703;51.162;13.574;2022-11-20T02:56:28;-7.20;99.90
1417;DHT22;703;51.162;13.574;2022-11-20T02:58:53;-7.20;99.90
1417;DHT22;703;51.162;13.574;2022-11-20T03:01:19;-7.20;99.90
1417;DHT22;703;51.162;13.574;2022-11-20T03:03:45;-7.10;99.90
1417;DHT22;703;51.162;13.574;2022-11-20T03:06:11;-7.10;99.90
1417;DHT22;703;51.162;13.574;2022-11-20T03:08:36;-7.20;99.90
1417;DHT22;703;51.162;13.574;2022-11-20T03:11:06;-7.30;99.90
1417;DHT22;703;51.162;13.574;2022-11-20T03:13:33;-7.30;99.90
1417;DHT22;703;51.162;13.574;2022-11-20T03:16:05;-7.40;99.90
1417;DHT22;703;51.162;13.574;2022-11-20T03:18:31;-7.40;99.90
1417;DHT22;703;51.162;13.574;2022-11-20T03:20:58;-7.40;99.90
1417;DHT22;703;51.162;13.574;2022-11-20T03:23:24;-7.40;99.90
1417;DHT22;703;51.162;13.574;2022-11-20T03:25:50;-7.50;99.90
1417;DHT22;703;51.162;13.574;2022-11-20T03:28:15;-7.50;99.90
1417;DHT22;703;51.162;13.574;2022-11-20T03:30:41;-7.50;99.90
1417;DHT22;703;51.162;13.574;2022-11-20T03:33:07;-7.50;99.90
1417;DHT22;703;51.162;13.574;2022-11-20T03:35:32;-7.50;99.90
1417;DHT22;703;51.162;13.574;2022-11-20T03:37:58;-7.50;99.90
1417;DHT22;703;51.162;13.574;2022-11-20T03:40:24;-7.50;99.90
1417;DHT22;703;51.162;13.574;2022-11-20T03:42:49;-7.50;99.90
1417;DHT22;703;51.162;13.574;2022-11-20T03:45:18;-7.50;99.90
1417;DHT22;703;51.162;13.574;2022-11-20T03:47:44;-7.50;99.90
1417;DHT22;703;51.162;13.574;2022-11-20T03:50:12;-7.50;99.90
1417;DHT22;703;51.162;13.574;2022-11-20T03:52:39;-7.50;99.90
1417;DHT22;703;51.162;13.574;2022-11-20T03:55:05;-8.60;99.90
1417;DHT22;703;51.162;13.574;2022-11-20T03:57:31;-7.50;99.90
1417;DHT22;703;51.162;13.574;2022-11-20T03:59:57;-7.40;99.90
1417;DHT22;703;51.162;13.574;2022-11-20T04:02:22;-7.50;99.90
1417;DHT22;703;51.162;13.574;2022-11-20T04:04:48;-7.50;99.90
1417;DHT22;703;51.162;13.574;2022-11-20T04:07:14;-7.60;99.90
1417;DHT22;703;51.162;13.574;2022-11-20T04:09:39;-7.70;99.90
1417;DHT22;703;51.162;13.574;2022-11-20T04:12:05;-7.70;99.90
1417;DHT22;703;51.162;13.574;2022-11-20T04:14:31;-7.70;99.90
1417;DHT22;703;51.162;13.574;2022-11-20T04:16:56;-7.70;99.90
1417;DHT22;703;51.162;13.574;2022-11-20T04:19:22;-7.70;99.90
1417;DHT22;703;51.162;13.574;2022-11-20T04:21:47;-7.70;99.90
1417;DHT22;703;51.162;13.574;2022-11-20T04:24:13;-7.70;99.90
1417;DHT22;703;51.162;13.574;2022-11-20T04:26:39;-6.40;99.90
1417;DHT22;703;51.162;13.574;2022-11-20T04:29:05;-7.70;99.90
1417;DHT22;703;51.162;13.574;2022-11-20T04:31:33;-7.70;99.90
1417;DHT22;703;51.162;13.574;2022-11-20T04:34:01;-7.70;99.90
1417;DHT22;703;51.162;13.574;2022-11-20T04:36:31;-7.70;99.90
1417;DHT22;703;51.162;13.574;2022-11-20T04:38:59;-7.70;99.90
1417;DHT22;703;51.162;13.574;2022-11-20T04:41:28;-7.60;99.90
1417;DHT22;703;51.162;13.574;2022-11-20T04:43:57;-7.70;99.90
1417;DHT22;703;51.162;13.574;2022-11-20T04:46:25;-7.70;99.90
1417;DHT22;703;51.162;13.574;2022-11-20T04:48:51;-7.70;99.90
1417;DHT22;703;51.162;13.574;2022-11-20T04:51:17;-7.70;99.90
1417;DHT22;703;51.162;13.574;2022-11-20T04:53:43;-7.70;99.90
1417;DHT22;703;51.162;13.574;2022-11-20T04:56:10;-7.80;99.90
1417;DHT22;703;51.162;13.574;2022-11-20T04:58:37;-7.80;99.90
1417;DHT22;703;51.162;13.574;2022-11-20T05:03:28;-7.70;99.90
1417;DHT22;703;51.162;13.574;2022-11-20T05:05:54;-7.80;99.90
1417;DHT22;703;51.162;13.574;2022-11-20T05:08:19;-7.80;99.90
1417;DHT22;703;51.162;13.574;2022-11-20T05:10:45;-7.90;99.90
1417;DHT22;703;51.162;13.574;2022-11-20T05:13:11;-7.90;99.90
1417;DHT22;703;51.162;13.574;2022-11-20T05:15:36;-7.90;99.90
1417;DHT22;703;51.162;13.574;2022-11-20T05:18:02;-7.90;99.90
1417;DHT22;703;51.162;13.574;2022-11-20T05:20:28;-7.90;99.90
1417;DHT22;703;51.162;13.574;2022-11-20T05:22:56;-7.90;99.90
1417;DHT22;703;51.162;13.574;2022-11-20T05:25:22;-7.80;99.90
1417;DHT22;703;51.162;13.574;2022-11-20T05:27:48;-7.90;99.90
1417;DHT22;703;51.162;13.574;2022-11-20T05:30:14;-8.00;99.90
1417;DHT22;703;51.162;13.574;2022-11-20T05:32:40;-8.00;99.90
1417;DHT22;703;51.162;13.574;2022-11-20T05:35:06;-8.10;99.90
1417;DHT22;703;51.162;13.574;2022-11-20T05:37:31;-8.00;99.90
1417;DHT22;703;51.162;13.574;2022-11-20T05:39:57;-7.80;99.90
1417;DHT22;703;51.162;13.574;2022-11-20T05:42:23;-7.80;99.90
1417;DHT22;703;51.162;13.574;2022-11-20T05:45:02;-7.80;99.90
1417;DHT22;703;51.162;13.574;2022-11-20T05:47:32;-7.80;99.90
1417;DHT22;703;51.162;13.574;2022-11-20T05:49:58;-7.70;99.90
1417;DHT22;703;51.162;13.574;2022-11-20T05:52:23;-7.70;99.90
1417;DHT22;703;51.162;13.574;2022-11-20T05:54:49;-7.80;99.90
1417;DHT22;703;51.162;13.574;2022-11-20T05:57:15;-7.90;99.90
1417;DHT22;703;51.162;13.574;2022-11-20T05:59:40;-7.90;99.90
1417;DHT22;703;51.162;13.574;2022-11-20T06:02:06;-7.90;99.90
1417;DHT22;703;51.162;13.574;2022-11-20T06:04:32;-7.90;99.90
1417;DHT22;703;51.162;13.574;2022-11-20T06:06:57;-8.00;99.90
1417;DHT22;703;51.162;13.574;2022-11-20T06:09:23;-8.00;99.90
1417;DHT22;703;51.162;13.574;2022-11-20T06:11:49;-8.00;99.90
1417;DHT22;703;51.162;13.574;2022-11-20T06:14:14;-8.00;99.90
1417;DHT22;703;51.162;13.574;2022-11-20T06:16:40;-8.00;99.90
1417;DHT22;703;51.162;13.574;2022-11-20T06:19:05;-8.00;99.90
1417;DHT22;703;51.162;13.574;2022-11-20T06:21:31;-8.00;99.90
1417;DHT22;703;51.162;13.574;2022-11-20T06:23:57;-8.00;99.90
1417;DHT22;703;51.162;13.574;2022-11-20T06:26:24;-7.90;99.90
1417;DHT22;703;51.162;13.574;2022-11-20T06:28:53;-8.00;99.90
1417;DHT22;703;51.162;13.574;2022-11-20T06:31:21;-7.90;99.90
1417;DHT22;703;51.162;13.574;2022-11-20T06:33:48;-7.70;99.90
1417;DHT22;703;51.162;13.574;2022-11-20T06:36:15;-7.70;99.90
1417;DHT22;703;51.162;13.574;2022-11-20T06:38:42;-7.70;99.90
1417;DHT22;703;51.162;13.574;2022-11-20T06:41:12;-7.70;99.90
1417;DHT22;703;51.162;13.574;2022-11-20T06:43:38;-7.70;99.90
1417;DHT22;703;51.162;13.574;2022-11-20T06:46:04;-7.70;99.90
1417;DHT22;703;51.162;13.574;2022-11-20T06:48:30;-7.80;99.90
1417;DHT22;703;51.162;13.574;2022-11-20T06:50:56;-7.80;99.90
1417;DHT22;703;51.162;13.574;2022-11-20T06:53:23;-7.80;99.90
1417;DHT22;703;51.162;13.574;2022-11-20T06:55:51;-7.80;99.90
1417;DHT22;703;51.162;13.574;2022-11-20T06:58:17;-7.80;99.90
1417;DHT22;703;51.162;13.574;2022-11-20T07:00:44;-7.70;99.90
1417;DHT22;703;51.162;13.574;2022-11-20T07:03:10;-7.60;99.90
1417;DHT22;703;51.162;13.574;2022-11-20T07:05:37;-7.70;99.90
1417;DHT22;703;51.162;13.574;2022-11-20T07:08:04;-7.60;99.90
1417;DHT22;703;51.162;13.574;2022-11-20T07:10:30;-7.60;99.90
1417;DHT22;703;51.162;13.574;2022-11-20T07:12:56;-7.60;99.90
1417;DHT22;703;51.162;13.574;2022-11-20T07:15:23;-7.50;99.90
1417;DHT22;703;51.162;13.574;2022-11-20T07:17:49;-7.60;99.90
1417;DHT22;703;51.162;13.574;2022-11-20T07:20:15;-7.50;99.90
1417;DHT22;703;51.162;13.574;2022-11-20T07:22:42;-7.50;99.90
1417;DHT22;703;51.162;13.574;2022-11-20T07:25:08;-7.30;99.90
1417;DHT22;703;51.162;13.574;2022-11-20T07:27:34;-7.20;99.90
1417;DHT22;703;51.162;13.574;2022-11-20T07:30:00;-7.20;99.90
1417;DHT22;703;51.162;13.574;2022-11-20T07:32:26;-7.20;99.90
1417;DHT22;703;51.162;13.574;2022-11-20T07:34:52;-7.10;99.90
1417;DHT22;703;51.162;13.574;2022-11-20T07:37:18;-6.80;99.90
1417;DHT22;703;51.162;13.574;2022-11-20T07:39:43;-6.60;99.90
1417;DHT22;703;51.162;13.574;2022-11-20T07:42:09;-6.10;99.90
1417;DHT22;703;51.162;13.574;2022-11-20T07:44:35;-6.10;99.90
1417;DHT22;703;51.162;13.574;2022-11-20T07:47:01;-6.00;99.90
1417;DHT22;703;51.162;13.574;2022-11-20T07:49:27;-6.00;99.90
1417;DHT22;703;51.162;13.574;2022-11-20T07:51:53;-5.80;99.90
1417;DHT22;703;51.162;13.574;2022-11-20T07:54:19;-5.80;99.90
1417;DHT22;703;51.162;13.574;2022-11-20T07:56:46;-5.70;99.90
1417;DHT22;703;51.162;13.574;2022-11-20T07:59:12;-5.70;99.90
1417;DHT22;703;51.162;13.574;2022-11-20T08:01:38;-5.70;99.90
1417;DHT22;703;51.162;13.574;2022-11-20T08:04:04;-5.60;99.90
1417;DHT22;703;51.162;13.574;2022-11-20T08:06:30;-5.60;99.90
1417;DHT22;703;51.162;13.574;2022-11-20T08:08:56;-5.50;99.90
1417;DHT22;703;51.162;13.574;2022-11-20T08:11:21;-5.30;99.90
1417;DHT22;703;51.162;13.574;2022-11-20T08:14:06;-5.10;99.90
1417;DHT22;703;51.162;13.574;2022-11-20T08:16:38;-4.90;99.90
1417;DHT22;703;51.162;13.574;2022-11-20T08:19:04;-4.90;99.90
1417;DHT22;703;51.162;13.574;2022-11-20T08:21:32;-4.70;99.90
1417;DHT22;703;51.162;13.574;2022-11-20T08:23:59;-4.80;99.90
1417;DHT22;703;51.162;13.574;2022-11-20T08:26:25;-4.70;99.90
1417;DHT22;703;51.162;13.574;2022-11-20T08:28:56;-4.70;99.90
1417;DHT22;703;51.162;13.574;2022-11-20T08:31:23;-4.60;99.90
1417;DHT22;703;51.162;13.574;2022-11-20T08:33:49;-4.40;99.90
1417;DHT22;703;51.162;13.574;2022-11-20T08:36:15;-4.30;99.90
1417;DHT22;703;51.162;13.574;2022-11-20T08:38:41;-4.20;99.90
1417;DHT22;703;51.162;13.574;2022-11-20T08:41:06;-4.20;99.90
1417;DHT22;703;51.162;13.574;2022-11-20T08:43:59;-4.10;99.90
1417;DHT22;703;51.162;13.574;2022-11-20T08:46:32;-4.00;99.90
1417;DHT22;703;51.162;13.574;2022-11-20T08:49:05;-3.80;99.90
1417;DHT22;703;51.162;13.574;2022-11-20T08:51:32;-3.70;99.90
1417;DHT22;703;51.162;13.574;2022-11-20T08:53:58;-3.50;99.90
1417;DHT22;703;51.162;13.574;2022-11-20T08:56:23;-3.40;99.90
1417;DHT22;703;51.162;13.574;2022-11-20T08:58:50;-3.30;99.90
1417;DHT22;703;51.162;13.574;2022-11-20T09:01:20;-3.20;99.90
1417;DHT22;703;51.162;13.574;2022-11-20T09:03:46;-3.10;99.90
1417;DHT22;703;51.162;13.574;2022-11-20T09:06:13;-3.00;99.90
1417;DHT22;703;51.162;13.574;2022-11-20T09:08:39;-2.80;99.90
1417;DHT22;703;51.162;13.574;2022-11-20T09:11:05;-2.70;99.90
1417;DHT22;703;51.162;13.574;2022-11-20T09:13:32;-2.70;99.90
1417;DHT22;703;51.162;13.574;2022-11-20T09:16:01;-2.60;99.90
1417;DHT22;703;51.162;13.574;2022-11-20T09:18:28;-2.50;99.90
1417;DHT22;703;51.162;13.574;2022-11-20T09:21:01;-2.40;99.90
1417;DHT22;703;51.162;13.574;2022-11-20T09:23:31;-2.20;99.90
1417;DHT22;703;51.162;13.574;2022-11-20T09:25:57;-2.20;99.90
1417;DHT22;703;51.162;13.574;2022-11-20T09:28:25;-2.20;99.90
1417;DHT22;703;51.162;13.574;2022-11-20T09:30:51;-2.10;99.90
1417;DHT22;703;51.162;13.574;2022-11-20T09:33:17;-2.90;99.90
1417;DHT22;703;51.162;13.574;2022-11-20T09:35:43;-2.00;99.90
1417;DHT22;703;51.162;13.574;2022-11-20T09:38:10;-2.20;99.90
1417;DHT22;703;51.162;13.574;2022-11-20T09:40:40;-2.20;99.90
1417;DHT22;703;51.162;13.574;2022-11-20T09:50:49;-2.20;99.90
1417;DHT22;703;51.162;13.574;2022-11-20T09:56:03;-2.10;99.90
1417;DHT22;703;51.162;13.574;2022-11-20T10:01:14;-1.90;99.90
1417;DHT22;703;51.162;13.574;2022-11-20T10:06:43;-1.90;99.90
1417;DHT22;703;51.162;13.574;2022-11-20T10:17:10;-1.40;99.90
1417;DHT22;703;51.162;13.574;2022-11-20T10:25:00;-1.30;99.90
1417;DHT22;703;51.162;13.574;2022-11-20T10:30:24;-1.20;99.90
1417;DHT22;703;51.162;13.574;2022-11-20T10:33:19;-1.10;99.90
1417;DHT22;703;51.162;13.574;2022-11-20T10:36:00;-1.00;99.90
1417;DHT22;703;51.162;13.574;2022-11-20T10:38:37;-1.00;99.90
1417;DHT22;703;51.162;13.574;2022-11-20T10:41:05;-0.70;99.90
1417;DHT22;703;51.162;13.574;2022-11-20T10:44:03;-0.50;99.90
1417;DHT22;703;51.162;13.574;2022-11-20T10:47:00;-0.40;99.90
1417;DHT22;703;51.162;13.574;2022-11-20T10:49:25;-0.30;99.90
1417;DHT22;703;51.162;13.574;2022-11-20T10:52:11;-0.20;99.90
1417;DHT22;703;51.162;13.574;2022-11-20T10:54:50;-0.20;99.90
1417;DHT22;703;51.162;13.574;2022-11-20T11:00:03;0.00;99.90
1417;DHT22;703;51.162;13.574;2022-11-20T11:02:48;-0.20;99.90
1417;DHT22;703;51.162;13.574;2022-11-20T11:07:50;-0.20;99.90
1417;DHT22;703;51.162;13.574;2022-11-20T11:10:32;0.00;99.90
1417;DHT22;703;51.162;13.574;2022-11-20T11:12:58;0.20;99.90
1417;DHT22;703;51.162;13.574;2022-11-20T11:15:36;0.30;99.90
1417;DHT22;703;51.162;13.574;2022-11-20T11:18:02;0.50;99.90
1417;DHT22;703;51.162;13.574;2022-11-20T11:20:28;0.50;99.90
1417;DHT22;703;51.162;13.574;2022-11-20T11:22:56;0.40;99.90
1417;DHT22;703;51.162;13.574;2022-11-20T11:25:27;0.20;99.90
1417;DHT22;703;51.162;13.574;2022-11-20T11:27:55;0.20;99.90
1417;DHT22;703;51.162;13.574;2022-11-20T11:30:22;0.20;99.90
1417;DHT22;703;51.162;13.574;2022-11-20T11:32:48;0.30;99.90
1417;DHT22;703;51.162;13.574;2022-11-20T11:35:29;0.30;99.90
1417;DHT22;703;51.162;13.574;2022-11-20T11:38:06;0.30;99.90
1417;DHT22;703;51.162;13.574;2022-11-20T11:40:39;0.40;99.90
1417;DHT22;703;51.162;13.574;2022-11-20T11:43:07;0.40;99.90
1417;DHT22;703;51.162;13.574;2022-11-20T11:46:02;0.50;99.90
1417;DHT22;703;51.162;13.574;2022-11-20T11:48:30;0.50;99.90
1417;DHT22;703;51.162;13.574;2022-11-20T11:50:55;0.50;99.90
1417;DHT22;703;51.162;13.574;2022-11-20T11:53:26;0.60;99.90
1417;DHT22;703;51.162;13.574;2022-11-20T11:56:10;0.50;99.90
1417;DHT22;703;51.162;13.574;2022-11-20T11:58:51;0.50;99.90
1417;DHT22;703;51.162;13.574;2022-11-20T12:01:54;0.40;99.90
1417;DHT22;703;51.162;13.574;2022-11-20T12:04:44;0.40;99.90
1417;DHT22;703;51.162;13.574;2022-11-20T12:07:41;0.40;99.90
1417;DHT22;703;51.162;13.574;2022-11-20T12:15:59;0.70;99.90
1417;DHT22;703;51.162;13.574;2022-11-20T12:18:25;0.70;99.90
1417;DHT22;703;51.162;13.574;2022-11-20T12:25:59;0.70;99.90
1417;DHT22;703;51.162;13.574;2022-11-20T12:36:47;0.30;99.90
1417;DHT22;703;51.162;13.574;2022-11-20T12:39:34;0.40;99.90
1417;DHT22;703;51.162;13.574;2022-11-20T12:42:28;0.40;99.90
1417;DHT22;703;51.162;13.574;2022-11-20T13:02:18;0.60;99.90
1417;DHT22;703;51.162;13.574;2022-11-20T13:07:35;0.50;99.90
1417;DHT22;703;51.162;13.574;2022-11-20T13:10:02;0.60;99.90
1417;DHT22;703;51.162;13.574;2022-11-20T13:12:45;0.50;99.90
1417;DHT22;703;51.162;13.574;2022-11-20T13:18:10;0.40;99.90
1417;DHT22;703;51.162;13.574;2022-11-20T13:20:41;0.40;99.90
1417;DHT22;703;51.162;13.574;2022-11-20T13:23:07;0.40;99.90
1417;DHT22;703;51.162;13.574;2022-11-20T13:25:38;0.60;99.90
1417;DHT22;703;51.162;13.574;2022-11-20T13:28:27;0.60;99.90
1417;DHT22;703;51.162;13.574;2022-11-20T13:30:55;0.80;99.90
1417;DHT22;703;51.162;13.574;2022-11-20T13:36:02;0.70;99.90
1417;DHT22;703;51.162;13.574;2022-11-20T13:38:39;0.60;99.90
1417;DHT22;703;51.162;13.574;2022-11-20T13:41:08;0.60;99.90
1417;DHT22;703;51.162;13.574;2022-11-20T13:43:52;0.50;99.90
1417;DHT22;703;51.162;13.574;2022-11-20T13:46:17;0.40;99.90
1417;DHT22;703;51.162;13.574;2022-11-20T13:48:51;0.30;99.90
1417;DHT22;703;51.162;13.574;2022-11-20T13:54:22;0.20;99.90
1417;DHT22;703;51.162;13.574;2022-11-20T13:59:37;0.20;99.90
1417;DHT22;703;51.162;13.574;2022-11-20T14:02:15;0.10;99.90
1417;DHT22;703;51.162;13.574;2022-11-20T14:04:52;0.10;99.90
1417;DHT22;703;51.162;13.574;2022-11-20T14:07:21;0.10;99.90
1417;DHT22;703;51.162;13.574;2022-11-20T14:09:56;0.00;99.90
1417;DHT22;703;51.162;13.574;2022-11-20T14:12:28;0.00;99.90
1417;DHT22;703;51.162;13.574;2022-11-20T14:14:55;-0.10;99.90
1417;DHT22;703;51.162;13.574;2022-11-20T14:19:48;-0.30;99.90
1417;DHT22;703;51.162;13.574;2022-11-20T14:22:21;-0.40;99.90
1417;DHT22;703;51.162;13.574;2022-11-20T14:27:41;-0.40;99.90
1417;DHT22;703;51.162;13.574;2022-11-20T14:30:16;-0.50;99.90
1417;DHT22;703;51.162;13.574;2022-11-20T14:32:43;-0.60;99.90
1417;DHT22;703;51.162;13.574;2022-11-20T14:35:17;-0.50;99.90
1417;DHT22;703;51.162;13.574;2022-11-20T14:37:45;-0.60;99.90
1417;DHT22;703;51.162;13.574;2022-11-20T14:40:27;-0.60;99.90
1417;DHT22;703;51.162;13.574;2022-11-20T14:42:54;-0.70;99.90
1417;DHT22;703;51.162;13.574;2022-11-20T14:45:20;-0.70;99.90
1417;DHT22;703;51.162;13.574;2022-11-20T14:47:46;-0.80;99.90
1417;DHT22;703;51.162;13.574;2022-11-20T14:50:25;-0.90;99.90
1417;DHT22;703;51.162;13.574;2022-11-20T14:52:56;-0.90;99.90
1417;DHT22;703;51.162;13.574;2022-11-20T14:55:31;-1.00;99.90
1417;DHT22;703;51.162;13.574;2022-11-20T14:58:00;-1.00;99.90
1417;DHT22;703;51.162;13.574;2022-11-20T15:00:27;-1.00;99.90
1417;DHT22;703;51.162;13.574;2022-11-20T15:02:53;-1.20;99.90
1417;DHT22;703;51.162;13.574;2022-11-20T15:05:24;-1.20;99.90
1417;DHT22;703;51.162;13.574;2022-11-20T15:08:04;-1.30;99.90
1417;DHT22;703;51.162;13.574;2022-11-20T15:10:30;-1.30;99.90
1417;DHT22;703;51.162;13.574;2022-11-20T15:13:10;-1.40;99.90
1417;DHT22;703;51.162;13.574;2022-11-20T15:15:52;-1.50;99.90
1417;DHT22;703;51.162;13.574;2022-11-20T15:18:22;-1.30;99.90
1417;DHT22;703;51.162;13.574;2022-11-20T15:20:50;-1.40;99.90
1417;DHT22;703;51.162;13.574;2022-11-20T15:23:17;-1.60;99.90
1417;DHT22;703;51.162;13.574;2022-11-20T15:25:47;-1.40;99.90
1417;DHT22;703;51.162;13.574;2022-11-20T15:28:23;-1.60;99.90
1417;DHT22;703;51.162;13.574;2022-11-20T15:30:52;-1.80;99.90
1417;DHT22;703;51.162;13.574;2022-11-20T15:33:18;-1.90;99.90
1417;DHT22;703;51.162;13.574;2022-11-20T15:35:44;-1.90;99.90
1417;DHT22;703;51.162;13.574;2022-11-20T15:38:10;-1.90;99.90
1417;DHT22;703;51.162;13.574;2022-11-20T15:40:36;-1.80;99.90
1417;DHT22;703;51.162;13.574;2022-11-20T15:43:02;-2.10;99.90
1417;DHT22;703;51.162;13.574;2022-11-20T15:45:30;-1.90;99.90
1417;DHT22;703;51.162;13.574;2022-11-20T15:47:59;-1.90;99.90
1417;DHT22;703;51.162;13.574;2022-11-20T15:50:36;-2.00;99.90
1417;DHT22;703;51.162;13.574;2022-11-20T15:53:02;-2.00;99.90
1417;DHT22;703;51.162;13.574;2022-11-20T15:55:28;-2.00;99.90
1417;DHT22;703;51.162;13.574;2022-11-20T15:57:53;-2.00;99.90
1417;DHT22;703;51.162;13.574;2022-11-20T16:00:19;-2.00;99.90
1417;DHT22;703;51.162;13.574;2022-11-20T16:02:45;-2.20;99.90
1417;DHT22;703;51.162;13.574;2022-11-20T16:05:12;-2.40;99.90
1417;DHT22;703;51.162;13.574;2022-11-20T16:07:39;-2.60;99.90
1417;DHT22;703;51.162;13.574;2022-11-20T16:10:05;-2.70;99.90
1417;DHT22;703;51.162;13.574;2022-11-20T16:12:30;-2.80;99.90
1417;DHT22;703;51.162;13.574;2022-11-20T16:15:15;-2.80;99.90
1417;DHT22;703;51.162;13.574;2022-11-20T16:18:01;-2.80;99.90
1417;DHT22;703;51.162;13.574;2022-11-20T16:20:26;-2.80;99.90
1417;DHT22;703;51.162;13.574;2022-11-20T16:22:52;-2.90;99.90
1417;DHT22;703;51.162;13.574;2022-11-20T16:25:18;-3.00;99.90
1417;DHT22;703;51.162;13.574;2022-11-20T16:27:43;-3.10;99.90
1417;DHT22;703;51.162;13.574;2022-11-20T16:30:09;-3.00;99.90
1417;DHT22;703;51.162;13.574;2022-11-20T16:32:35;-3.10;99.90
1417;DHT22;703;51.162;13.574;2022-11-20T16:35:01;-3.10;99.90
1417;DHT22;703;51.162;13.574;2022-11-20T16:37:27;-3.10;99.90
1417;DHT22;703;51.162;13.574;2022-11-20T16:39:53;-3.20;99.90
1417;DHT22;703;51.162;13.574;2022-11-20T16:42:18;-3.30;99.90
1417;DHT22;703;51.162;13.574;2022-11-20T16:44:45;-3.30;99.90
1417;DHT22;703;51.162;13.574;2022-11-20T16:47:11;-3.40;99.90
1417;DHT22;703;51.162;13.574;2022-11-20T16:49:37;-3.40;99.90
1417;DHT22;703;51.162;13.574;2022-11-20T16:52:03;-3.40;99.90
1417;DHT22;703;51.162;13.574;2022-11-20T16:54:29;-3.40;99.90
1417;DHT22;703;51.162;13.574;2022-11-20T16:56:54;-3.50;99.90
1417;DHT22;703;51.162;13.574;2022-11-20T16:59:20;-3.50;99.90
1417;DHT22;703;51.162;13.574;2022-11-20T17:01:46;-3.60;99.90
1417;DHT22;703;51.162;13.574;2022-11-20T17:04:11;-3.60;99.90
1417;DHT22;703;51.162;13.574;2022-11-20T17:06:40;-3.60;99.90
1417;DHT22;703;51.162;13.574;2022-11-20T17:09:06;-3.60;99.90
1417;DHT22;703;51.162;13.574;2022-11-20T17:11:34;-3.70;99.90
1417;DHT22;703;51.162;13.574;2022-11-20T17:14:00;-3.70;99.90
1417;DHT22;703;51.162;13.574;2022-11-20T17:16:28;-3.80;99.90
1417;DHT22;703;51.162;13.574;2022-11-20T17:18:55;-3.80;99.90
1417;DHT22;703;51.162;13.574;2022-11-20T17:21:21;-3.80;99.90
1417;DHT22;703;51.162;13.574;2022-11-20T17:23:47;-3.70;99.90
1417;DHT22;703;51.162;13.574;2022-11-20T17:26:16;-3.80;99.90
1417;DHT22;703;51.162;13.574;2022-11-20T17:28:42;-3.80;99.90
1417;DHT22;703;51.162;13.574;2022-11-20T17:31:11;-4.60;99.90
1417;DHT22;703;51.162;13.574;2022-11-20T17:33:39;-3.80;99.90
1417;DHT22;703;51.162;13.574;2022-11-20T17:36:06;-3.80;99.90
1417;DHT22;703;51.162;13.574;2022-11-20T17:38:32;-3.80;99.90
1417;DHT22;703;51.162;13.574;2022-11-20T17:41:06;-3.90;99.90
1417;DHT22;703;51.162;13.574;2022-11-20T17:43:33;-3.90;99.90
1417;DHT22;703;51.162;13.574;2022-11-20T17:46:09;-3.90;99.90
1417;DHT22;703;51.162;13.574;2022-11-20T17:48:35;-2.30;99.90
1417;DHT22;703;51.162;13.574;2022-11-20T17:51:03;-4.10;99.90
1417;DHT22;703;51.162;13.574;2022-11-20T17:53:32;-4.00;99.90
1417;DHT22;703;51.162;13.574;2022-11-20T17:55:59;-4.10;99.90
1417;DHT22;703;51.162;13.574;2022-11-20T17:58:43;-4.10;99.90
1417;DHT22;703;51.162;13.574;2022-11-20T18:01:09;-4.00;99.90
1417;DHT22;703;51.162;13.574;2022-11-20T18:03:35;-4.10;99.90